Kingsdown, Kansas
Current Conditions -  °F | °C
As of 6:52 AM on Saturday 25 Oct 2014 (Local Time) from KDDC Reporting Station
Clear Clear  
Wind Chill: 52°   Ceiling: Unl
Heat Index: 52°   Visibility: 10mi
Dew Point: 44°   Wind: 9mph
Humidity: 74%   Direction: 210°SSW
Pressure: 30.08"   Gusts: NA
Location:  37.6165°N, 99.7893°W
Report Text: KDDC 251152Z AUTO 21008KT 10SM CLR 11/07 A3008 RMK AO2 SLP168 T01110067 10167 20106 53001
Loading
Personal Weather Stations






























Interactive Weather Map
Tropical Storm Tracking
New forecast layout! Learn more

10-Day Weather Forecast

Advertisements
Track Severe Weather on mobile